Time;durP1;ratioP1;P1;durP2;ratioP2;P2;SDS_P1;SDS_P2;PMS_P1;PMS_P2;Temp;Humidity;BMP_temperature;BMP_pressure;BME280_temperature;BME280_humidity;BME280_pressure;Samples;Min_cycle;Max_cycle;Signal;HPM_P1;HPM_P2
2023/04/14 00:00:39;;;;;;;13.65;2.95;;;5.60;99.90;;;;;;5071046;28;20404;-60
2023/04/14 00:03:05;;;;;;;9.95;2.30;;;5.60;99.90;;;;;;5072110;28;20044;-60
2023/04/14 00:05:32;;;;;;;9.20;2.25;;;5.50;99.90;;;;;;5074740;28;20132;-59
2023/04/14 00:07:58;;;;;;;8.52;2.47;;;5.50;99.90;;;;;;5074620;28;20071;-60
2023/04/14 00:10:24;;;;;;;9.57;2.33;;;5.40;99.90;;;;;;5074838;28;20468;-61
2023/04/14 00:12:50;;;;;;;10.35;2.65;;;5.40;99.90;;;;;;5074619;28;20131;-61
2023/04/14 00:15:16;;;;;;;12.75;3.35;;;5.40;99.90;;;;;;5074642;28;20113;-60
2023/04/14 00:17:41;;;;;;;13.63;2.63;;;5.40;99.90;;;;;;5074605;28;20040;-59
2023/04/14 00:20:08;;;;;;;14.00;3.95;;;5.40;99.90;;;;;;5074345;28;20040;-60
2023/04/14 00:22:34;;;;;;;10.98;2.80;;;5.30;99.90;;;;;;5074266;28;20431;-60
2023/04/14 00:25:00;;;;;;;11.93;2.72;;;5.20;99.90;;;;;;5074368;28;20033;-61
2023/04/14 00:27:26;;;;;;;10.18;2.88;;;5.30;99.90;;;;;;5074202;28;20036;-61
2023/04/14 00:29:52;;;;;;;11.85;3.15;;;5.30;99.90;;;;;;5074338;28;20511;-61
2023/04/14 00:32:18;;;;;;;10.90;2.58;;;5.20;99.90;;;;;;5074397;28;20032;-59
2023/04/14 00:34:44;;;;;;;11.38;2.95;;;5.20;99.90;;;;;;5073105;28;20055;-60
2023/04/14 00:37:09;;;;;;;12.88;2.95;;;5.30;99.90;;;;;;5074268;28;20086;-61
2023/04/14 00:39:35;;;;;;;12.90;3.03;;;5.20;99.90;;;;;;5074260;28;20101;-60
2023/04/14 00:42:02;;;;;;;15.68;2.90;;;5.20;99.90;;;;;;5074111;28;20369;-60
2023/04/14 00:44:27;;;;;;;12.75;2.92;;;5.20;99.90;;;;;;5074137;28;20123;-60
2023/04/14 00:46:54;;;;;;;9.25;2.70;;;5.20;99.90;;;;;;5074077;28;20437;-60
2023/04/14 00:49:19;;;;;;;11.38;2.60;;;5.30;99.90;;;;;;5072578;28;20484;-60
2023/04/14 00:51:47;;;;;;;11.80;2.70;;;5.20;99.90;;;;;;5073911;28;20079;-60
2023/04/14 00:54:16;;;;;;;7.68;2.60;;;5.10;99.90;;;;;;5073661;28;20059;-60
2023/04/14 00:56:42;;;;;;;11.27;2.78;;;5.00;99.90;;;;;;5073734;28;20032;-60
2023/04/14 00:59:09;;;;;;;9.43;2.88;;;5.10;99.90;;;;;;5073611;28;20048;-60
2023/04/14 01:01:39;;;;;;;12.43;2.67;;;4.90;99.90;;;;;;5073946;28;20037;-61
2023/04/14 01:04:05;;;;;;;9.25;2.63;;;4.90;99.90;;;;;;5073400;28;20068;-60
2023/04/14 01:06:33;;;;;;;11.95;2.90;;;4.90;99.90;;;;;;5073421;28;20052;-61
2023/04/14 01:09:00;;;;;;;7.90;3.13;;;4.80;99.90;;;;;;5073549;28;20051;-61
2023/04/14 01:12:17;;;;;;;9.80;2.50;;;4.70;99.90;;;;;;5073468;28;20044;-61
2023/04/14 01:15:10;;;;;;;9.85;2.47;;;4.80;99.90;;;;;;5073347;28;20158;-60
2023/04/14 01:17:44;;;;;;;9.85;2.58;;;4.70;99.90;;;;;;5073352;28;20036;-61
2023/04/14 01:20:29;;;;;;;9.52;2.42;;;4.60;99.90;;;;;;5073473;28;20118;-61
2023/04/14 01:23:18;;;;;;;8.85;2.38;;;4.70;99.90;;;;;;5073200;28;20048;-61
2023/04/14 01:26:08;;;;;;;9.18;2.53;;;4.70;99.90;;;;;;5073104;28;20037;-61
2023/04/14 01:28:44;;;;;;;11.20;2.80;;;4.70;99.90;;;;;;5073204;28;20048;-60
2023/04/14 01:31:13;;;;;;;10.13;2.75;;;4.50;99.90;;;;;;5055146;28;20040;-61
2023/04/14 01:33:42;;;;;;;11.40;3.58;;;4.60;99.90;;;;;;5072861;28;20443;-60
2023/04/14 01:36:18;;;;;;;10.60;2.45;;;4.60;99.90;;;;;;5073051;28;20040;-60
2023/04/14 01:38:47;;;;;;;9.50;2.20;;;4.50;99.90;;;;;;5073146;28;20393;-61
2023/04/14 01:41:15;;;;;;;10.48;2.80;;;4.60;99.90;;;;;;5072989;28;20051;-61
2023/04/14 01:43:44;;;;;;;13.63;2.60;;;4.60;99.90;;;;;;5072590;28;20049;-61
2023/04/14 01:46:13;;;;;;;10.20;2.90;;;4.50;99.90;;;;;;5072833;28;20442;-60
2023/04/14 01:48:40;;;;;;;9.63;2.60;;;4.60;99.90;;;;;;5072409;28;20477;-61
2023/04/14 01:51:08;;;;;;;8.70;2.47;;;4.40;99.90;;;;;;5072432;28;20619;-60
2023/04/14 01:53:37;;;;;;;7.43;2.60;;;4.40;99.90;;;;;;5072847;28;20047;-60
2023/04/14 02:05:08;;;;;;;9.15;2.80;;;4.30;99.90;;;;;;5039372;28;20636;-62
2023/04/14 02:07:41;;;;;;;9.45;3.20;;;4.40;99.90;;;;;;5052124;28;20076;-62
2023/04/14 02:10:10;;;;;;;9.02;3.30;;;4.30;99.90;;;;;;5059459;28;20059;-62
2023/04/14 02:12:40;;;;;;;12.55;3.10;;;4.30;99.90;;;;;;5059661;28;20045;-63
2023/04/14 02:15:11;;;;;;;7.55;2.95;;;4.30;99.90;;;;;;5059556;28;20045;-62
2023/04/14 02:17:37;;;;;;;11.27;2.92;;;4.30;99.90;;;;;;5059931;28;20048;-62
2023/04/14 02:20:05;;;;;;;9.45;3.08;;;4.40;99.90;;;;;;5059921;28;20041;-62
2023/04/14 02:22:30;;;;;;;11.20;2.90;;;4.30;99.90;;;;;;5059885;28;20041;-63
2023/04/14 02:24:56;;;;;;;8.88;2.88;;;4.30;99.90;;;;;;5059892;28;20053;-63
2023/04/14 02:27:34;;;;;;;11.18;2.80;;;4.30;99.90;;;;;;5059684;28;20055;-62
2023/04/14 02:30:17;;;;;;;9.40;2.78;;;4.40;99.90;;;;;;5059845;28;20052;-62
2023/04/14 02:32:48;;;;;;;11.93;3.03;;;4.30;99.90;;;;;;5059981;28;20041;-63
2023/04/14 02:35:17;;;;;;;9.80;3.17;;;4.40;99.90;;;;;;5059374;28;20045;-63
2023/04/14 02:37:47;;;;;;;7.68;2.75;;;4.30;99.90;;;;;;5059537;28;20052;-62
2023/04/14 02:40:26;;;;;;;6.75;2.72;;;4.40;99.90;;;;;;5059617;28;20405;-62
2023/04/14 02:43:10;;;;;;;6.47;2.65;;;4.30;99.90;;;;;;5059571;28;20519;-63
2023/04/14 02:45:39;;;;;;;9.15;2.63;;;4.30;99.90;;;;;;5059506;28;20053;-62
2023/04/14 02:48:10;;;;;;;11.77;2.72;;;4.30;99.90;;;;;;5051345;28;20127;-62
2023/04/14 02:50:37;;;;;;;9.50;2.70;;;4.40;99.90;;;;;;5039296;28;20057;-64
2023/04/14 02:53:04;;;;;;;7.75;2.47;;;4.50;99.90;;;;;;5021691;28;20763;-61
2023/04/14 02:55:31;;;;;;;10.63;3.00;;;4.40;99.90;;;;;;5039649;28;20049;-60
2023/04/14 02:57:58;;;;;;;12.85;2.83;;;4.40;99.90;;;;;;5039732;28;20041;-62
2023/04/14 03:00:26;;;;;;;7.38;2.63;;;4.30;99.90;;;;;;5039161;28;20134;-62
2023/04/14 03:02:53;;;;;;;8.27;2.65;;;4.30;99.90;;;;;;5039284;28;20111;-63
2023/04/14 03:05:20;;;;;;;8.85;2.60;;;4.30;99.90;;;;;;5039648;28;20096;-62
2023/04/14 03:07:47;;;;;;;10.27;2.67;;;4.40;99.90;;;;;;5039427;28;20105;-63
2023/04/14 03:10:13;;;;;;;10.00;3.28;;;4.30;99.90;;;;;;5039238;28;20053;-62
2023/04/14 03:12:40;;;;;;;8.73;2.78;;;4.30;99.90;;;;;;5039447;28;20437;-63
2023/04/14 03:15:08;;;;;;;11.38;2.88;;;4.40;99.90;;;;;;5039371;28;20045;-62
2023/04/14 03:17:36;;;;;;;9.25;2.45;;;4.20;99.90;;;;;;5039269;28;20492;-62
2023/04/14 03:20:02;;;;;;;6.95;2.35;;;4.30;99.90;;;;;;5039461;28;20625;-61
2023/04/14 03:22:29;;;;;;;10.95;2.97;;;4.40;99.90;;;;;;5039656;28;20045;-63
2023/04/14 03:24:57;;;;;;;10.77;2.75;;;4.30;99.90;;;;;;5039379;28;20052;-63
2023/04/14 03:27:28;;;;;;;11.57;2.65;;;4.40;99.90;;;;;;5021386;28;20060;-63
2023/04/14 03:29:59;;;;;;;7.68;2.60;;;4.30;99.90;;;;;;5039577;28;20033;-63
2023/04/14 03:32:32;;;;;;;6.70;2.03;;;4.30;99.90;;;;;;5039556;28;20077;-63
2023/04/14 03:35:00;;;;;;;9.80;2.47;;;4.20;99.90;;;;;;5039064;28;20042;-63
2023/04/14 03:37:27;;;;;;;10.52;2.40;;;4.40;99.90;;;;;;5021403;28;20089;-62
2023/04/14 03:39:57;;;;;;;9.38;2.40;;;4.20;99.90;;;;;;5043001;28;20057;-63
2023/04/14 03:42:24;;;;;;;9.18;3.17;;;4.30;99.90;;;;;;5043123;28;20047;-63
2023/04/14 03:44:53;;;;;;;8.70;2.80;;;4.30;99.90;;;;;;5042841;28;20049;-62
2023/04/14 03:47:22;;;;;;;9.73;2.60;;;4.20;99.90;;;;;;5027072;28;20080;-63
2023/04/14 03:49:49;;;;;;;8.40;2.40;;;4.20;99.90;;;;;;5045063;28;20048;-63
2023/04/14 03:52:16;;;;;;;8.98;2.63;;;4.20;99.90;;;;;;5062679;28;20048;-62
2023/04/14 03:54:44;;;;;;;11.52;3.22;;;4.10;99.90;;;;;;5062828;28;20037;-62
2023/04/14 03:57:12;;;;;;;8.73;2.28;;;4.10;99.90;;;;;;5062463;28;20116;-63
2023/04/14 03:59:40;;;;;;;7.78;2.50;;;4.00;99.90;;;;;;5062934;28;20104;-63
2023/04/14 04:02:07;;;;;;;11.38;3.15;;;4.10;99.90;;;;;;5062085;28;20087;-63
2023/04/14 04:04:35;;;;;;;10.95;2.67;;;4.00;99.90;;;;;;5062495;28;20081;-62
2023/04/14 04:07:01;;;;;;;6.20;2.30;;;4.00;99.90;;;;;;5062602;28;20072;-63
2023/04/14 04:09:29;;;;;;;8.27;2.42;;;4.10;99.90;;;;;;5062388;28;20127;-63
2023/04/14 04:11:57;;;;;;;7.55;2.13;;;4.00;99.90;;;;;;5062332;28;20040;-62
2023/04/14 04:14:24;;;;;;;11.68;3.45;;;4.00;99.90;;;;;;5062412;28;20099;-63
2023/04/14 04:16:52;;;;;;;10.27;2.90;;;4.40;99.90;;;;;;5061549;28;20091;-61
2023/04/14 04:19:21;;;;;;;7.70;2.95;;;4.00;99.90;;;;;;5062139;28;20063;-63
2023/04/14 04:21:50;;;;;;;13.93;2.92;;;4.10;99.90;;;;;;5062071;28;20072;-62
2023/04/14 04:24:17;;;;;;;9.45;2.92;;;4.00;99.90;;;;;;5062477;28;20045;-62
2023/04/14 04:26:43;;;;;;;11.13;2.70;;;4.00;99.90;;;;;;5062499;28;20040;-63
2023/04/14 04:29:09;;;;;;;8.20;2.50;;;4.00;99.90;;;;;;5062420;28;20041;-63
2023/04/14 04:31:35;;;;;;;10.95;2.88;;;3.80;99.90;;;;;;5061979;28;20052;-63
2023/04/14 04:34:04;;;;;;;7.32;2.58;;;4.00;99.90;;;;;;5062101;28;20045;-63
2023/04/14 04:36:31;;;;;;;7.97;2.80;;;3.90;99.90;;;;;;5061937;28;20752;-62
2023/04/14 04:38:57;;;;;;;8.98;2.90;;;3.90;99.90;;;;;;5061526;28;20088;-61
2023/04/14 04:41:24;;;;;;;11.05;3.13;;;3.80;99.90;;;;;;5061875;28;20048;-63
2023/04/14 04:43:50;;;;;;;12.05;2.95;;;3.70;99.90;;;;;;5062015;28;20052;-62
2023/04/14 04:46:37;;;;;;;9.52;2.83;;;3.80;99.90;;;;;;5061874;28;20040;-63
2023/04/14 04:49:03;;;;;;;7.05;2.70;;;3.90;99.90;;;;;;5044894;28;20053;-62
2023/04/14 04:51:30;;;;;;;10.48;3.78;;;3.80;99.90;;;;;;5023978;28;20056;-63
2023/04/14 04:53:55;;;;;;;7.82;2.55;;;3.90;99.90;;;;;;5024282;28;20068;-63
2023/04/14 04:56:21;;;;;;;8.38;3.28;;;3.80;99.90;;;;;;5041440;28;20104;-62
2023/04/14 04:58:47;;;;;;;10.45;3.13;;;3.80;99.90;;;;;;5041803;28;20045;-62
2023/04/14 05:01:14;;;;;;;10.40;2.83;;;3.80;99.90;;;;;;5041466;28;20378;-62
2023/04/14 05:03:40;;;;;;;8.75;2.70;;;3.90;99.90;;;;;;5041068;28;20053;-61
2023/04/14 05:06:06;;;;;;;8.60;2.88;;;3.90;99.90;;;;;;5041041;28;20056;-62
2023/04/14 05:08:32;;;;;;;9.23;2.58;;;4.10;99.90;;;;;;5020695;28;20072;-62
2023/04/14 05:10:57;;;;;;;8.75;2.55;;;3.90;99.90;;;;;;5038238;28;20048;-62
2023/04/14 05:13:24;;;;;;;8.38;2.90;;;4.10;99.90;;;;;;5037818;28;20520;-62
2023/04/14 05:15:50;;;;;;;9.02;3.10;;;4.00;99.90;;;;;;5038219;28;20045;-62
2023/04/14 05:18:16;;;;;;;9.50;3.17;;;4.10;99.90;;;;;;5038112;28;20041;-59
2023/04/14 05:20:42;;;;;;;12.38;3.20;;;4.10;99.90;;;;;;5037287;28;20056;-59
2023/04/14 05:23:08;;;;;;;10.63;2.83;;;4.20;99.90;;;;;;5037512;28;20049;-59
2023/04/14 05:25:34;;;;;;;10.52;2.83;;;4.20;99.90;;;;;;5037982;28;20105;-60
2023/04/14 05:28:00;;;;;;;6.55;2.55;;;4.20;99.90;;;;;;5037931;28;20120;-60
2023/04/14 05:30:26;;;;;;;8.63;2.63;;;4.40;99.90;;;;;;5037651;28;20525;-60
2023/04/14 05:32:51;;;;;;;9.45;3.15;;;4.30;99.90;;;;;;5037335;28;20108;-63
2023/04/14 05:35:17;;;;;;;8.38;2.80;;;4.40;99.90;;;;;;5037664;28;20437;-62
2023/04/14 05:37:43;;;;;;;9.40;3.08;;;4.40;99.90;;;;;;5037417;28;20053;-60
2023/04/14 05:40:09;;;;;;;8.85;2.50;;;4.40;99.90;;;;;;5036115;28;20056;-59
2023/04/14 05:42:35;;;;;;;9.15;3.13;;;4.50;99.90;;;;;;5019607;28;20057;-60
2023/04/14 05:45:01;;;;;;;10.73;3.08;;;4.40;99.90;;;;;;5037151;28;20045;-60
2023/04/14 05:47:27;;;;;;;8.25;2.80;;;4.50;99.90;;;;;;5040219;28;20048;-60
2023/04/14 05:49:52;;;;;;;9.85;2.97;;;4.50;99.90;;;;;;5057262;28;20500;-60
2023/04/14 05:52:18;;;;;;;13.15;2.50;;;4.50;99.90;;;;;;5057304;28;20040;-59
2023/04/14 05:54:44;;;;;;;8.18;2.38;;;4.70;99.90;;;;;;5057479;28;20052;-60
2023/04/14 05:57:10;;;;;;;11.25;3.15;;;4.80;99.90;;;;;;5056576;28;20060;-61
2023/04/14 05:59:35;;;;;;;7.57;2.47;;;4.80;99.90;;;;;;5057208;28;20079;-60
2023/04/14 06:02:05;;;;;;;8.88;2.60;;;4.90;99.90;;;;;;5055133;28;20048;-59
2023/04/14 06:04:31;;;;;;;10.48;2.70;;;4.90;99.90;;;;;;5055962;28;20080;-60
2023/04/14 06:06:57;;;;;;;11.55;3.00;;;5.10;99.90;;;;;;5056518;28;20048;-60
2023/04/14 06:09:23;;;;;;;6.85;2.35;;;5.10;99.90;;;;;;5055280;28;20151;-60
2023/04/14 06:11:49;;;;;;;10.35;2.78;;;5.20;99.90;;;;;;5056030;28;20500;-62
2023/04/14 06:14:15;;;;;;;7.95;2.60;;;5.30;99.90;;;;;;5055400;28;20045;-63
2023/04/14 06:16:40;;;;;;;8.20;2.40;;;5.30;99.90;;;;;;5056336;28;20044;-61
2023/04/14 06:19:06;;;;;;;6.95;2.60;;;5.50;99.90;;;;;;5055567;28;20075;-62
2023/04/14 06:21:31;;;;;;;9.45;2.83;;;5.50;99.90;;;;;;5055579;28;20037;-62
2023/04/14 06:23:57;;;;;;;8.18;2.40;;;5.70;99.90;;;;;;5055716;28;20480;-62
2023/04/14 06:26:24;;;;;;;10.30;2.47;;;5.80;99.90;;;;;;5055336;28;20117;-62
2023/04/14 06:28:50;;;;;;;8.93;3.03;;;5.80;99.90;;;;;;5055926;28;20280;-62
2023/04/14 06:31:16;;;;;;;10.15;2.55;;;5.90;99.90;;;;;;5055111;28;20073;-63
2023/04/14 06:33:42;;;;;;;9.57;3.00;;;6.00;99.90;;;;;;5055282;28;20049;-62
2023/04/14 06:36:07;;;;;;;9.48;2.50;;;6.10;99.90;;;;;;5037202;28;20056;-62
2023/04/14 06:38:33;;;;;;;7.93;2.85;;;6.20;99.90;;;;;;5039689;28;20052;-62
2023/04/14 06:40:59;;;;;;;12.07;3.25;;;6.30;99.90;;;;;;5035024;28;20044;-62
2023/04/14 06:43:24;;;;;;;11.07;2.72;;;6.30;99.90;;;;;;5034871;28;20057;-62
2023/04/14 06:45:50;;;;;;;8.40;2.72;;;6.40;99.90;;;;;;5034903;28;20125;-62
2023/04/14 06:48:16;;;;;;;8.98;2.75;;;6.50;99.90;;;;;;5039372;28;20045;-62
2023/04/14 06:50:41;;;;;;;8.32;2.70;;;6.50;99.90;;;;;;5039463;28;20049;-63
2023/04/14 06:53:08;;;;;;;6.40;2.30;;;6.60;99.90;;;;;;5042540;28;20051;-62
2023/04/14 06:55:40;;;;;;;7.57;2.65;;;6.60;99.90;;;;;;5028494;28;20067;-61
2023/04/14 06:58:05;;;;;;;9.90;2.90;;;6.80;99.90;;;;;;5034292;28;20041;-62
2023/04/14 07:00:31;;;;;;;10.80;2.83;;;6.80;99.90;;;;;;5037855;28;20044;-62
2023/04/14 07:02:57;;;;;;;9.68;2.60;;;7.00;99.90;;;;;;5034457;28;20085;-62
2023/04/14 07:05:22;;;;;;;13.43;3.20;;;7.10;99.90;;;;;;5034693;28;20050;-62
2023/04/14 07:07:48;;;;;;;8.13;2.70;;;7.10;99.90;;;;;;5035034;28;20104;-62
2023/04/14 07:10:14;;;;;;;10.48;2.85;;;7.30;99.90;;;;;;5034827;28;20060;-62
2023/04/14 07:12:40;;;;;;;7.68;2.80;;;7.30;99.90;;;;;;5037771;28;20060;-62
2023/04/14 07:15:06;;;;;;;11.95;3.45;;;7.50;99.90;;;;;;5039044;28;20110;-62
2023/04/14 07:17:34;;;;;;;7.05;3.30;;;7.50;99.90;;;;;;5038770;28;20572;-62
2023/04/14 07:20:00;;;;;;;10.10;2.95;;;7.70;99.90;;;;;;5039309;28;20073;-62
2023/04/14 07:22:26;;;;;;;11.82;2.58;;;7.80;99.90;;;;;;5039123;28;20049;-63
2023/04/14 07:24:52;;;;;;;12.45;2.50;;;7.90;99.90;;;;;;5039059;28;20073;-62
2023/04/14 07:27:18;;;;;;;8.30;3.20;;;8.00;99.90;;;;;;5038840;28;20042;-62
2023/04/14 07:29:44;;;;;;;10.60;2.67;;;8.10;99.90;;;;;;5021392;28;20046;-62
2023/04/14 07:32:12;;;;;;;8.32;2.95;;;8.20;99.90;;;;;;5038420;28;20109;-62
2023/04/14 07:34:42;;;;;;;10.07;2.50;;;8.20;99.90;;;;;;5037539;28;20060;-62
2023/04/14 07:37:08;;;;;;;9.25;3.10;;;8.30;99.90;;;;;;5038098;28;20077;-62
2023/04/14 07:39:34;;;;;;;10.45;2.50;;;8.40;99.90;;;;;;5038166;28;20105;-63
2023/04/14 07:42:00;;;;;;;7.55;2.20;;;8.50;99.90;;;;;;5039027;28;20076;-63
2023/04/14 07:44:26;;;;;;;8.07;2.25;;;8.70;99.90;;;;;;5037946;28;20048;-62
2023/04/14 07:46:52;;;;;;;7.18;2.30;;;8.80;99.90;;;;;;5038822;28;20053;-63
2023/04/14 07:49:17;;;;;;;7.88;2.53;;;8.80;99.90;;;;;;5040599;28;20046;-62
2023/04/14 07:51:43;;;;;;;7.60;2.33;;;8.90;99.90;;;;;;5040546;28;20095;-63
2023/04/14 07:54:10;;;;;;;7.68;2.13;;;9.00;99.90;;;;;;5058457;28;20893;-63
2023/04/14 07:56:35;;;;;;;11.95;3.50;;;9.10;99.90;;;;;;5039919;28;20053;-63
2023/04/14 07:59:01;;;;;;;9.02;2.80;;;9.20;99.90;;;;;;5058877;28;20051;-63
2023/04/14 08:01:27;;;;;;;7.30;2.10;;;9.20;99.90;;;;;;5057799;28;20049;-62
2023/04/14 08:03:53;;;;;;;9.05;2.58;;;9.30;99.90;;;;;;5058601;28;20160;-62
2023/04/14 08:06:19;;;;;;;9.15;2.13;;;9.40;99.90;;;;;;5058001;28;20061;-63
2023/04/14 08:08:45;;;;;;;9.07;2.25;;;9.50;99.90;;;;;;5057742;28;20048;-62
2023/04/14 08:11:11;;;;;;;10.27;3.25;;;9.60;99.90;;;;;;5058363;28;20044;-63
2023/04/14 08:13:36;;;;;;;12.85;2.38;;;9.60;99.90;;;;;;5058173;28;20052;-63
2023/04/14 08:16:02;;;;;;;8.95;2.50;;;9.70;99.90;;;;;;5058200;28;20037;-63
2023/04/14 08:18:28;;;;;;;7.70;2.35;;;9.80;99.90;;;;;;5057711;28;20059;-63
2023/04/14 08:20:54;;;;;;;10.68;2.95;;;9.80;99.90;;;;;;5040120;28;20056;-61
2023/04/14 08:23:21;;;;;;;7.82;2.45;;;9.80;99.90;;;;;;5057517;28;20101;-59
2023/04/14 08:25:47;;;;;;;10.02;2.33;;;10.00;99.90;;;;;;5060614;28;20049;-60
2023/04/14 08:28:12;;;;;;;10.40;2.17;;;10.10;99.90;;;;;;5061399;28;20056;-60
2023/04/14 08:30:38;;;;;;;10.00;2.13;;;10.20;99.90;;;;;;5060701;28;20068;-60
2023/04/14 08:33:04;;;;;;;7.82;2.20;;;10.30;99.90;;;;;;5061185;28;20104;-60
2023/04/14 08:35:30;;;;;;;12.93;2.53;;;10.20;99.90;;;;;;5060194;28;20045;-60
2023/04/14 08:37:59;;;;;;;15.10;2.40;;;10.30;99.90;;;;;;5061146;28;20080;-60
2023/04/14 08:40:34;;;;;;;9.73;2.35;;;10.20;99.90;;;;;;5060285;28;20048;-60
2023/04/14 08:43:00;;;;;;;8.55;2.28;;;10.40;99.90;;;;;;5060046;28;20056;-60
2023/04/14 08:45:27;;;;;;;7.80;2.20;;;10.50;99.90;;;;;;5061017;28;20045;-61
2023/04/14 08:47:55;;;;;;;10.82;2.08;;;10.50;99.90;;;;;;5054105;28;20157;-61
2023/04/14 08:50:25;;;;;;;10.48;2.63;;;10.60;99.90;;;;;;5040747;28;20041;-61
2023/04/14 08:52:55;;;;;;;9.80;2.22;;;10.70;99.90;;;;;;5038724;28;20101;-61
2023/04/14 08:55:21;;;;;;;9.38;2.35;;;10.70;99.90;;;;;;5040195;28;20046;-61
2023/04/14 08:57:47;;;;;;;7.60;1.98;;;10.70;99.90;;;;;;5040036;28;20037;-61
2023/04/14 09:00:14;;;;;;;8.07;2.47;;;10.80;99.90;;;;;;5040466;28;20047;-61
2023/04/14 09:02:41;;;;;;;7.40;1.90;;;10.90;99.90;;;;;;5040600;28;20065;-60
2023/04/14 09:05:08;;;;;;;10.23;2.17;;;11.00;99.90;;;;;;5040419;28;20053;-61
2023/04/14 09:07:34;;;;;;;8.73;1.92;;;10.90;99.90;;;;;;5040648;28;20045;-61
2023/04/14 09:10:01;;;;;;;10.05;2.50;;;11.10;99.90;;;;;;5039705;28;20300;-60
2023/04/14 09:12:28;;;;;;;7.43;2.08;;;11.20;99.90;;;;;;5040544;28;20041;-61
2023/04/14 09:14:57;;;;;;;13.57;2.30;;;11.10;99.90;;;;;;5039251;28;20045;-61
2023/04/14 09:17:25;;;;;;;8.90;2.40;;;11.30;99.90;;;;;;5039462;28;20045;-60
2023/04/14 09:19:51;;;;;;;8.52;2.25;;;11.30;99.90;;;;;;5040082;28;20045;-60
2023/04/14 09:22:17;;;;;;;11.65;2.22;;;11.20;99.90;;;;;;5022370;28;20469;-60
2023/04/14 09:24:43;;;;;;;10.88;2.53;;;11.30;99.90;;;;;;5039617;28;20073;-60
2023/04/14 09:27:09;;;;;;;10.02;2.15;;;11.30;99.90;;;;;;5039779;28;20057;-60
2023/04/14 09:29:36;;;;;;;8.85;2.10;;;11.40;99.90;;;;;;5040391;28;20057;-60
2023/04/14 09:32:06;;;;;;;9.85;1.92;;;11.60;99.90;;;;;;5039612;28;20030;-60
2023/04/14 09:34:32;;;;;;;11.75;2.40;;;11.60;99.90;;;;;;5039679;28;20052;-60
2023/04/14 09:37:04;;;;;;;11.48;2.25;;;11.60;99.90;;;;;;5039223;28;20135;-60
2023/04/14 09:39:31;;;;;;;9.98;2.08;;;11.60;99.90;;;;;;5039387;28;20043;-60
2023/04/14 09:41:58;;;;;;;9.07;1.80;;;11.70;99.90;;;;;;5040154;28;20072;-59
2023/04/14 09:44:23;;;;;;;11.07;1.95;;;11.70;99.90;;;;;;5039151;28;20104;-60
2023/04/14 09:47:05;;;;;;;9.70;2.03;;;11.80;99.90;;;;;;5039917;28;20037;-60
2023/04/14 09:49:31;;;;;;;6.97;1.92;;;11.90;99.90;;;;;;5041000;28;20988;-60
2023/04/14 09:52:07;;;;;;;9.13;1.58;;;12.00;99.90;;;;;;5059498;28;20059;-60
2023/04/14 09:54:33;;;;;;;11.60;2.40;;;12.00;99.90;;;;;;5059070;28;20048;-60
2023/04/14 09:57:00;;;;;;;10.65;2.55;;;12.10;99.90;;;;;;5058696;28;20052;-60
2023/04/14 09:59:33;;;;;;;12.38;2.97;;;12.20;99.90;;;;;;5059688;28;20049;-60
2023/04/14 10:02:03;;;;;;;11.88;3.97;;;12.20;99.90;;;;;;5058981;28;20055;-60
2023/04/14 10:04:29;;;;;;;11.35;2.20;;;12.30;99.90;;;;;;5058414;28;20077;-60
2023/04/14 10:06:56;;;;;;;10.25;2.72;;;12.30;99.90;;;;;;5041381;28;20957;-60
2023/04/14 10:09:23;;;;;;;11.52;2.50;;;12.20;99.90;;;;;;5057186;28;20045;-59
2023/04/14 10:12:14;;;;;;;9.82;2.25;;;12.30;99.90;;;;;;5059054;28;20500;-60
2023/04/14 10:14:41;;;;;;;13.48;1.98;;;12.20;99.90;;;;;;5058135;28;20088;-60
2023/04/14 10:17:07;;;;;;;8.15;1.90;;;12.40;99.90;;;;;;5058454;28;20064;-60
2023/04/14 10:19:35;;;;;;;11.27;2.20;;;12.00;99.90;;;;;;5059032;28;20079;-60
2023/04/14 10:22:01;;;;;;;11.10;2.13;;;12.00;99.90;;;;;;5042634;28;20049;-60
2023/04/14 10:24:27;;;;;;;9.65;2.03;;;11.90;99.90;;;;;;5039201;28;20096;-60
2023/04/14 10:26:54;;;;;;;9.43;1.90;;;11.80;99.90;;;;;;5038621;28;20084;-60
2023/04/14 10:29:20;;;;;;;11.40;2.38;;;11.80;99.90;;;;;;5039242;28;20128;-60
2023/04/14 10:31:51;;;;;;;11.27;2.60;;;12.10;99.90;;;;;;5038227;28;20069;-60
2023/04/14 10:34:18;;;;;;;11.70;2.47;;;12.20;99.90;;;;;;5038477;28;20045;-60
2023/04/14 10:36:43;;;;;;;8.73;1.98;;;12.10;99.90;;;;;;5020673;28;20046;-60
2023/04/14 10:39:10;;;;;;;11.65;2.58;;;12.00;99.90;;;;;;5038372;28;20049;-60
2023/04/14 10:41:50;;;;;;;9.10;1.70;;;12.00;99.90;;;;;;5038873;28;20041;-60
2023/04/14 10:44:30;;;;;;;10.52;1.80;;;12.10;99.90;;;;;;5037533;28;20061;-60
2023/04/14 10:46:59;;;;;;;7.75;1.73;;;12.40;99.90;;;;;;5037085;28;20053;-61
2023/04/14 10:49:39;;;;;;;12.20;2.30;;;12.60;99.90;;;;;;5038035;28;20056;-59
2023/04/14 10:52:15;;;;;;;9.95;2.00;;;12.80;99.90;;;;;;5037703;28;20041;-60
2023/04/14 10:55:08;;;;;;;8.88;2.40;;;12.60;99.90;;;;;;5038282;28;20439;-60
2023/04/14 10:57:41;;;;;;;13.00;2.50;;;12.50;99.90;;;;;;5036306;28;20476;-60
2023/04/14 11:00:23;;;;;;;10.48;2.70;;;12.60;99.90;;;;;;5037742;28;20076;-58
2023/04/14 11:03:03;;;;;;;10.52;2.10;;;12.60;99.90;;;;;;5038633;28;20045;-60
2023/04/14 11:05:32;;;;;;;10.93;2.30;;;12.40;99.90;;;;;;5037180;28;20517;-60
2023/04/14 11:08:00;;;;;;;13.35;2.58;;;12.30;99.90;;;;;;5036933;28;20056;-60
2023/04/14 11:10:29;;;;;;;10.02;2.08;;;12.20;99.90;;;;;;5038115;28;20045;-60
2023/04/14 11:13:05;;;;;;;9.73;2.13;;;12.20;99.90;;;;;;5038106;28;20709;-60
2023/04/14 11:16:09;;;;;;;11.20;2.08;;;12.30;99.90;;;;;;5038554;28;20037;-60
2023/04/14 11:18:42;;;;;;;10.02;2.20;;;12.30;99.90;;;;;;5033166;28;20073;-60
2023/04/14 11:21:12;;;;;;;13.18;2.22;;;12.50;99.90;;;;;;5038571;28;20061;-60
2023/04/14 11:23:38;;;;;;;9.02;2.63;;;12.60;99.90;;;;;;5037312;28;20041;-60
2023/04/14 11:26:05;;;;;;;9.48;2.00;;;12.60;99.90;;;;;;5037815;28;20033;-61
2023/04/14 11:28:36;;;;;;;9.73;2.47;;;12.60;99.90;;;;;;5038001;28;20046;-59
2023/04/14 11:31:04;;;;;;;9.27;1.88;;;12.60;99.90;;;;;;5037948;28;20067;-60
2023/04/14 11:33:32;;;;;;;7.78;2.00;;;12.90;99.90;;;;;;5038200;28;20033;-60
2023/04/14 11:36:00;;;;;;;9.32;2.33;;;13.20;99.90;;;;;;5020148;28;20519;-60
2023/04/14 11:38:26;;;;;;;10.40;2.45;;;13.00;99.90;;;;;;5038010;28;20049;-60
2023/04/14 11:40:53;;;;;;;9.15;2.05;;;12.90;99.90;;;;;;5038269;28;20511;-60
2023/04/14 11:43:20;;;;;;;8.27;2.28;;;12.80;99.90;;;;;;5037783;28;20077;-59
2023/04/14 11:45:47;;;;;;;7.88;1.90;;;12.90;99.90;;;;;;5038444;28;20073;-60
2023/04/14 11:48:16;;;;;;;10.93;2.50;;;12.80;99.90;;;;;;5037598;28;20042;-60
2023/04/14 11:50:44;;;;;;;11.15;2.42;;;13.00;99.90;;;;;;5038132;28;20085;-59
2023/04/14 11:53:12;;;;;;;9.73;2.17;;;13.20;99.90;;;;;;5037443;28;20053;-60
2023/04/14 11:55:42;;;;;;;11.65;2.28;;;13.30;99.90;;;;;;5037733;28;20053;-60
2023/04/14 11:58:08;;;;;;;9.10;1.80;;;13.30;99.90;;;;;;5038096;28;20122;-59
2023/04/14 12:00:33;;;;;;;8.63;1.80;;;13.30;99.90;;;;;;5041184;28;20054;-60
2023/04/14 12:03:03;;;;;;;6.25;1.88;;;13.60;99.90;;;;;;5041548;28;20045;-60
2023/04/14 12:05:30;;;;;;;8.35;1.77;;;13.90;99.90;;;;;;5040358;28;20057;-60
2023/04/14 12:08:01;;;;;;;9.70;2.72;;;14.10;99.90;;;;;;5040218;28;20060;-60
2023/04/14 12:10:27;;;;;;;7.00;1.85;;;14.10;99.90;;;;;;5040305;28;20076;-60
2023/04/14 12:13:07;;;;;;;9.00;1.85;;;14.40;99.90;;;;;;5040502;28;20049;-60
2023/04/14 12:15:37;;;;;;;8.32;1.70;;;14.60;99.90;;;;;;5039463;28;20101;-60
2023/04/14 12:18:06;;;;;;;10.57;2.67;;;14.60;99.90;;;;;;5038147;28;20037;-60
2023/04/14 12:20:41;;;;;;;6.72;2.10;;;14.80;99.90;;;;;;5039419;28;20055;-60
2023/04/14 12:23:07;;;;;;;8.85;2.58;;;14.90;99.90;;;;;;5038700;28;20065;-60
2023/04/14 12:25:33;;;;;;;7.63;1.88;;;14.70;99.90;;;;;;5038507;28;20041;-60
2023/04/14 12:28:05;;;;;;;12.13;2.08;;;14.50;99.90;;;;;;5039815;28;20041;-60
2023/04/14 12:30:36;;;;;;;10.35;2.80;;;14.80;99.90;;;;;;5039931;28;20079;-62
2023/04/14 12:33:11;;;;;;;9.25;1.80;;;15.00;99.90;;;;;;5039837;28;20087;-62
2023/04/14 12:35:39;;;;;;;8.50;1.92;;;14.70;99.10;;;;;;5039970;28;20501;-61
2023/04/14 12:38:11;;;;;;;5.43;1.85;;;14.70;99.90;;;;;;5021988;28;20084;-60
2023/04/14 12:40:45;;;;;;;8.80;2.25;;;14.70;99.90;;;;;;5039531;28;20057;-60
2023/04/14 12:43:12;;;;;;;7.70;1.67;;;14.60;99.90;;;;;;5039818;28;20061;-60
2023/04/14 12:45:44;;;;;;;9.13;1.80;;;14.70;99.90;;;;;;5039694;28;20049;-61
2023/04/14 12:48:16;;;;;;;9.05;2.80;;;14.60;99.60;;;;;;5039232;28;20061;-60
2023/04/14 12:50:42;;;;;;;7.97;1.80;;;14.60;99.40;;;;;;5053431;28;20063;-60
2023/04/14 12:53:26;;;;;;;6.95;1.50;;;14.90;99.20;;;;;;5045355;28;20034;-60
2023/04/14 12:56:16;;;;;;;9.02;1.52;;;14.90;98.20;;;;;;5038637;28;20041;-60
2023/04/14 12:58:45;;;;;;;7.10;2.17;;;15.20;97.80;;;;;;5036881;28;20143;-60
2023/04/14 13:01:12;;;;;;;7.63;1.80;;;15.20;97.80;;;;;;5038826;28;20045;-59
2023/04/14 13:03:43;;;;;;;6.72;1.40;;;15.20;97.90;;;;;;5045822;28;20136;-61